Hauptseite
METAR-TAF:

METAR-TAF

Flughäfen :

Bermuda, Bermuda

L.F. Wade International Airport

Breite: 32-22N, Länge: 064-41W, Höhe: 6 m

Beobachtung

Neuester Wetterbericht von vor 37 Minuten, um 20:55 UTC
Wind 6 kt aus West
Temperatur 23°C
Luftfeuchtigkeit 73%
Luftdruck 1026 hPa
Sichtweite 10 km oder mehr
Leicht bewölkt in der Höhe von 1500 ft
Aufgelockert bewölkt in der Höhe von 30000 ft

METAR: TXKF 292055Z 27006KT 9999 FEW015 SCT300 23/18 Q1026

Zeit: 18:32 (21:32 UTC)

Prognose

Neuester Wetterbericht von vor 3 Stunden und 54 Minuten, um 17:38 UTC
Gültige Prognose vom 29 um 18 UTC bis 30 um 18 UTC
Wind 8 kt aus Nordwest
Sichtweite 10 km oder mehr
Leicht bewölkt in der Höhe von 1400 ft
Aufgelockert bewölkt in der Höhe von 2500 ft
Übergehend zu
vom 30 um 09 UTC bis 30 um 12 UTC
Wind 8 kt aus West

TAF: TXKF 291738Z 2918/3018 31008KT 9999 FEW014 SCT025 BECMG 3009/3012 26008KT

Wetterbeobachtungen und Prognosen von mehr als 4000 Flughäfen (METAR und TAF Bericht).

Die verfügbaren Stationen werden durch gelbe und rote Markierungen auf der Karte dargestellt.

Führen Sie die Maus auf sie, um den Namen der Station zu sehen.

Darauf klicken, um die Beobachtung von Wetterbeobachtungen und Prognosen zu sehen.

Um die Karte zu ändern : klicken Sie auf den grünen Tasten mit einem schwarzen Kreuz Zum Vergrößern, auf den grünen Button mit einem Gedankenstrich zu verkleinern, oder auf die grünen Pfeile für benachbarte Karten.


METAR-TAF: